createdAt,value
2023-01-26T00:02:07.108Z,101167.84
2023-01-26T00:04:35.208Z,101158.16
2023-01-26T00:07:05.173Z,101152.53
2023-01-26T00:09:34.886Z,101148.50
2023-01-26T00:12:05.484Z,101147.28
2023-01-26T00:14:50.620Z,101147.63
2023-01-26T00:17:26.928Z,101142.41
2023-01-26T00:19:56.412Z,101134.78
2023-01-26T00:22:26.990Z,101135.53
2023-01-26T00:24:54.641Z,101125.00
2023-01-26T00:27:25.349Z,101123.09
2023-01-26T00:29:55.885Z,101121.19
2023-01-26T00:32:23.685Z,101109.94
2023-01-26T00:34:51.247Z,101114.00
2023-01-26T00:37:21.645Z,101106.72
2023-01-26T00:39:54.551Z,101103.00
2023-01-26T00:42:26.721Z,101107.78
2023-01-26T00:44:54.295Z,101103.75
2023-01-26T00:47:22.072Z,101104.91
2023-01-26T00:49:52.829Z,101100.81
2023-01-26T00:52:27.423Z,101098.88
2023-01-26T00:54:55.132Z,101091.84
2023-01-26T00:57:25.244Z,101098.28
2023-01-26T00:59:58.744Z,101097.81
2023-01-26T01:02:26.376Z,101097.44
2023-01-26T01:04:56.420Z,101097.38
2023-01-26T01:07:24.678Z,101094.56
2023-01-26T01:09:52.176Z,101088.94
2023-01-26T01:12:20.017Z,101097.81
2023-01-26T01:14:51.070Z,101099.81
2023-01-26T01:17:21.209Z,101094.16
2023-01-26T01:19:48.719Z,101095.38
2023-01-26T01:22:19.401Z,101090.19
2023-01-26T01:24:48.025Z,101094.16
2023-01-26T01:27:18.055Z,101092.91
2023-01-26T01:29:45.653Z,101093.38
2023-01-26T01:32:13.041Z,101105.00
2023-01-26T01:34:47.193Z,101088.81
2023-01-26T01:37:18.023Z,101096.44
2023-01-26T01:39:49.029Z,101085.59
2023-01-26T01:42:18.589Z,101086.00
2023-01-26T01:45:33.209Z,101071.91
2023-01-26T01:48:05.162Z,101073.88
2023-01-26T01:50:40.104Z,101064.66
2023-01-26T01:53:13.014Z,101071.47
2023-01-26T01:55:41.370Z,101067.06
2023-01-26T01:58:09.730Z,101065.41
2023-01-26T02:00:44.810Z,101066.19
2023-01-26T02:03:14.987Z,101060.97
2023-01-26T02:05:48.780Z,101052.97
2023-01-26T02:08:19.658Z,101058.81
2023-01-26T02:10:50.412Z,101050.09
2023-01-26T02:13:19.646Z,101048.56
2023-01-26T02:15:51.696Z,101037.47
2023-01-26T02:18:22.027Z,101042.38
2023-01-26T02:21:11.526Z,101046.50
2023-01-26T02:23:58.491Z,101046.16
2023-01-26T02:26:36.583Z,101037.41
2023-01-26T02:29:09.583Z,101041.47
2023-01-26T02:31:43.872Z,101036.28
2023-01-26T02:34:14.040Z,101030.19
2023-01-26T02:36:41.761Z,101030.28
2023-01-26T02:39:15.326Z,101028.78
2023-01-26T02:42:16.665Z,101020.50
2023-01-26T02:44:47.227Z,101022.13
2023-01-26T02:47:21.900Z,101022.13
2023-01-26T02:49:52.517Z,101016.88
2023-01-26T02:52:31.055Z,101008.44
2023-01-26T02:55:26.217Z,101005.59
2023-01-26T02:57:59.445Z,101006.78
2023-01-26T03:00:34.915Z,101001.56
2023-01-26T03:03:12.297Z,100993.97
2023-01-26T03:05:42.930Z,101002.44
2023-01-26T03:08:10.368Z,100993.97
2023-01-26T03:10:47.110Z,100991.03
2023-01-26T03:13:18.106Z,100994.31
2023-01-26T03:15:52.788Z,100981.78
2023-01-26T03:18:44.243Z,100983.44
2023-01-26T03:21:35.855Z,100978.97
2023-01-26T03:24:23.171Z,100979.84
2023-01-26T03:27:13.117Z,100981.00
2023-01-26T03:29:50.253Z,100972.09
2023-01-26T03:32:19.853Z,100969.94
2023-01-26T03:34:47.945Z,100973.41
2023-01-26T03:37:15.652Z,100966.50
2023-01-26T03:40:13.220Z,100970.38
2023-01-26T03:42:59.848Z,100968.28
2023-01-26T03:45:50.932Z,100961.31
2023-01-26T03:48:39.681Z,100958.03
2023-01-26T03:51:26.183Z,100951.91
2023-01-26T03:54:12.783Z,100949.81
2023-01-26T03:56:40.248Z,100959.88
2023-01-26T03:59:15.565Z,100945.31
2023-01-26T04:02:04.969Z,100954.53
2023-01-26T04:04:52.044Z,100946.91
2023-01-26T04:07:44.371Z,100938.75
2023-01-26T04:10:15.259Z,100934.69
2023-01-26T04:12:46.708Z,100936.25
2023-01-26T04:15:38.961Z,100929.00
2023-01-26T04:18:26.858Z,100921.31
2023-01-26T04:21:16.852Z,100923.28
2023-01-26T04:23:45.413Z,100925.66
2023-01-26T04:26:14.045Z,100916.78
2023-01-26T04:28:42.112Z,100912.31
2023-01-26T04:31:14.950Z,100904.22
2023-01-26T04:33:45.793Z,100902.22
2023-01-26T04:36:16.052Z,100897.34
2023-01-26T04:38:49.561Z,100894.13
2023-01-26T04:41:22.565Z,100895.81
2023-01-26T04:44:01.960Z,100890.22
2023-01-26T04:46:36.235Z,100886.56
2023-01-26T04:49:06.295Z,100893.03
2023-01-26T04:51:38.965Z,100889.34
2023-01-26T04:54:09.593Z,100886.88
2023-01-26T04:56:40.898Z,100883.56
2023-01-26T04:59:11.365Z,100892.78
2023-01-26T05:01:41.634Z,100889.16
2023-01-26T05:04:11.899Z,100889.56
2023-01-26T05:06:44.743Z,100886.75
2023-01-26T05:09:15.379Z,100883.53
2023-01-26T05:11:48.296Z,100879.50
2023-01-26T05:14:39.282Z,100885.63
2023-01-26T05:17:30.131Z,100887.66
2023-01-26T05:20:14.345Z,100887.31
2023-01-26T05:22:59.767Z,100886.09
2023-01-26T05:25:30.183Z,100884.81
2023-01-26T05:28:07.832Z,100890.09
2023-01-26T05:30:38.922Z,100887.63
2023-01-26T05:33:10.578Z,100886.81
2023-01-26T05:35:41.054Z,100888.13
2023-01-26T05:38:10.829Z,100890.78
2023-01-26T05:40:41.689Z,100883.53
2023-01-26T05:43:12.657Z,100882.38
2023-01-26T05:45:40.656Z,100886.88
2023-01-26T05:48:09.390Z,100892.78
2023-01-26T05:50:42.323Z,100890.09
2023-01-26T05:53:22.922Z,100888.88
2023-01-26T05:55:51.659Z,100891.69
2023-01-26T05:58:22.755Z,100890.50
2023-01-26T06:00:51.048Z,100881.63
2023-01-26T06:03:31.871Z,100887.25
2023-01-26T06:05:59.588Z,100888.06
2023-01-26T06:08:37.824Z,100888.06
2023-01-26T06:11:34.448Z,100893.72
2023-01-26T06:14:20.715Z,100888.84
2023-01-26T06:16:50.035Z,100894.03
2023-01-26T06:19:19.247Z,100889.19
2023-01-26T06:21:53.823Z,100887.53
2023-01-26T06:24:23.898Z,100886.34
2023-01-26T06:26:53.100Z,100884.28
2023-01-26T06:29:20.766Z,100887.16
2023-01-26T06:31:53.959Z,100888.34
2023-01-26T06:34:22.238Z,100878.72
2023-01-26T06:36:49.972Z,100875.16
2023-01-26T06:39:27.371Z,100873.16
2023-01-26T06:41:57.480Z,100867.91
2023-01-26T06:44:27.557Z,100864.28
2023-01-26T06:46:59.058Z,100870.28
2023-01-26T06:49:26.498Z,100873.53
2023-01-26T06:52:16.946Z,100867.03
2023-01-26T06:54:53.415Z,100876.69
2023-01-26T06:57:39.366Z,100869.94
2023-01-26T07:00:44.231Z,100869.50
2023-01-26T07:03:16.824Z,100860.25
2023-01-26T07:05:50.290Z,100859.91
2023-01-26T07:08:20.719Z,100863.16
2023-01-26T07:10:52.754Z,100857.91
2023-01-26T07:13:23.925Z,100866.81
2023-01-26T07:16:03.137Z,100866.81
2023-01-26T07:18:38.897Z,100864.06
2023-01-26T07:21:12.220Z,100861.28
2023-01-26T07:23:43.667Z,100861.03
2023-01-26T07:26:12.533Z,100865.19
2023-01-26T07:28:45.113Z,100864.63
2023-01-26T07:31:18.990Z,100861.88
2023-01-26T07:33:54.703Z,100867.03
2023-01-26T07:36:22.819Z,100869.28
2023-01-26T07:38:52.269Z,100864.50
2023-01-26T07:41:23.055Z,100860.97
2023-01-26T07:43:54.259Z,100864.78
2023-01-26T07:46:25.038Z,100866.16
2023-01-26T07:48:53.528Z,100860.56
2023-01-26T07:51:23.999Z,100866.91
2023-01-26T07:53:54.487Z,100868.25
2023-01-26T07:56:27.848Z,100862.16
2023-01-26T07:59:03.738Z,100858.34
2023-01-26T08:01:34.590Z,100859.47
2023-01-26T08:04:07.852Z,100856.50
2023-01-26T08:06:41.061Z,100852.00
2023-01-26T08:09:14.609Z,100856.34
2023-01-26T08:11:48.157Z,100853.06
2023-01-26T08:14:20.145Z,100848.50
2023-01-26T08:16:51.288Z,100851.72
2023-01-26T08:19:28.205Z,100851.66
2023-01-26T08:21:57.843Z,100854.78
2023-01-26T08:24:29.482Z,100847.91
2023-01-26T08:26:57.657Z,100862.78
2023-01-26T08:29:28.879Z,100851.50
2023-01-26T08:32:01.994Z,100855.06
2023-01-26T08:34:39.825Z,100864.63
2023-01-26T08:37:15.017Z,100867.09
2023-01-26T08:39:48.109Z,100859.81
2023-01-26T08:42:22.878Z,100860.16
2023-01-26T08:44:53.353Z,100860.56
2023-01-26T08:47:26.213Z,100870.25
2023-01-26T08:49:56.455Z,100862.88
2023-01-26T08:52:30.072Z,100870.59
2023-01-26T08:55:01.118Z,100869.03
2023-01-26T08:57:32.265Z,100868.19
2023-01-26T09:00:03.567Z,100871.81
2023-01-26T09:02:32.433Z,100872.63
2023-01-26T09:05:05.087Z,100875.50
2023-01-26T09:07:36.319Z,100868.13
2023-01-26T09:10:07.382Z,100871.25
2023-01-26T09:12:41.200Z,100881.41
2023-01-26T09:15:14.779Z,100870.19
2023-01-26T09:17:49.198Z,100875.50
2023-01-26T09:20:22.769Z,100875.59
2023-01-26T09:22:55.433Z,100880.69
2023-01-26T09:25:23.293Z,100876.69
2023-01-26T09:27:53.845Z,100881.91
2023-01-26T09:30:21.774Z,100876.38
2023-01-26T09:32:49.745Z,100876.03
2023-01-26T09:35:18.422Z,100880.84
2023-01-26T09:37:52.465Z,100876.38
2023-01-26T09:40:54.415Z,100877.66
2023-01-26T09:43:41.752Z,100873.16
2023-01-26T09:46:25.588Z,100870.38
2023-01-26T09:49:11.781Z,100875.28
2023-01-26T09:51:46.917Z,100870.84
2023-01-26T09:54:32.192Z,100866.50
2023-01-26T09:57:12.703Z,100874.16
2023-01-26T09:59:53.548Z,100861.28
2023-01-26T10:02:40.378Z,100867.75
2023-01-26T10:05:37.043Z,100861.25
2023-01-26T10:08:21.419Z,100858.41
2023-01-26T10:11:03.268Z,100851.91
2023-01-26T10:13:34.529Z,100842.56
2023-01-26T10:16:06.890Z,100854.31
2023-01-26T10:19:23.645Z,100845.84
2023-01-26T10:21:53.402Z,100839.44
2023-01-26T10:24:25.807Z,100836.88
2023-01-26T10:26:58.176Z,100827.16
2023-01-26T10:29:26.171Z,100838.88
2023-01-26T10:31:55.555Z,100829.25
2023-01-26T10:34:31.571Z,100821.16
2023-01-26T10:37:21.378Z,100813.47
2023-01-26T10:40:12.724Z,100812.00
2023-01-26T10:42:53.705Z,100806.72
2023-01-26T10:45:28.960Z,100811.63
2023-01-26T10:48:34.288Z,100796.69
2023-01-26T10:51:25.341Z,100799.91
2023-01-26T10:54:19.483Z,100800.34
2023-01-26T10:57:02.451Z,100792.25
2023-01-26T10:59:40.681Z,100795.09
2023-01-26T11:02:23.207Z,100786.94
2023-01-26T11:05:16.162Z,100784.06
2023-01-26T11:07:49.382Z,100786.97
2023-01-26T11:10:27.296Z,100772.88
2023-01-26T11:13:14.417Z,100770.50
2023-01-26T11:15:45.486Z,100764.47
2023-01-26T11:18:49.820Z,100752.38
2023-01-26T11:22:01.828Z,100752.75
2023-01-26T11:24:45.143Z,100743.13
2023-01-26T11:27:20.700Z,100735.50
2023-01-26T11:30:28.231Z,100730.28
2023-01-26T11:33:13.723Z,100737.91
2023-01-26T11:36:03.121Z,100728.28
2023-01-26T11:38:42.507Z,100727.47
2023-01-26T11:41:50.273Z,100721.34
2023-01-26T11:44:29.598Z,100721.69
2023-01-26T11:47:20.420Z,100714.06
2023-01-26T11:50:06.848Z,100701.19
2023-01-26T11:52:58.409Z,100706.47
2023-01-26T11:55:47.948Z,100695.09
2023-01-26T11:58:39.391Z,100695.16
2023-01-26T12:01:20.592Z,100690.69
2023-01-26T12:03:58.738Z,100685.03
2023-01-26T12:06:45.650Z,100678.59
2023-01-26T12:09:52.988Z,100665.63
2023-01-26T12:12:49.735Z,100667.25
2023-01-26T12:15:32.139Z,100649.09
2023-01-26T12:18:17.163Z,100653.53
2023-01-26T12:20:55.922Z,100652.31
2023-01-26T12:23:47.847Z,100640.19
2023-01-26T12:26:19.017Z,100639.78
2023-01-26T12:28:57.993Z,100636.56
2023-01-26T12:32:00.191Z,100632.88
2023-01-26T12:34:35.390Z,100630.00
2023-01-26T12:37:32.648Z,100624.00
2023-01-26T12:40:49.257Z,100617.94
2023-01-26T12:43:38.432Z,100621.19
2023-01-26T12:46:12.144Z,100613.84
2023-01-26T12:49:08.692Z,100620.31
2023-01-26T12:51:53.793Z,100609.47
2023-01-26T12:54:49.392Z,100603.84
2023-01-26T12:57:27.724Z,100585.28
2023-01-26T13:00:35.497Z,100598.59
2023-01-26T13:03:17.172Z,100599.41
2023-01-26T13:06:23.287Z,100595.00
2023-01-26T13:09:29.467Z,100594.22
2023-01-26T13:12:00.496Z,100587.34
2023-01-26T13:14:43.178Z,100587.38
2023-01-26T13:17:19.264Z,100582.25
2023-01-26T13:19:46.843Z,100586.34
2023-01-26T13:22:23.790Z,100572.22
2023-01-26T13:25:14.517Z,100566.16
2023-01-26T13:27:59.662Z,100564.56
2023-01-26T13:30:47.147Z,100558.13
2023-01-26T13:33:30.732Z,100562.97
2023-01-26T13:36:15.108Z,100558.88
2023-01-26T13:38:50.511Z,100556.91
2023-01-26T13:41:27.726Z,100563.78
2023-01-26T13:44:14.889Z,100558.13
2023-01-26T13:47:03.350Z,100553.25
2023-01-26T13:49:40.142Z,100560.50
2023-01-26T13:52:18.760Z,100553.25
2023-01-26T13:54:57.891Z,100557.28
2023-01-26T13:57:34.984Z,100550.81
2023-01-26T14:00:06.892Z,100551.63
2023-01-26T14:02:38.907Z,100559.69
2023-01-26T14:05:22.674Z,100550.81
2023-01-26T14:07:54.614Z,100554.03
2023-01-26T14:10:28.000Z,100558.06
2023-01-26T14:13:01.274Z,100556.84
2023-01-26T14:15:35.722Z,100557.22
2023-01-26T14:18:21.644Z,100556.00
2023-01-26T14:20:52.565Z,100559.25
2023-01-26T14:23:25.640Z,100552.00
2023-01-26T14:26:29.038Z,100554.78
2023-01-26T14:29:03.574Z,100551.19
2023-01-26T14:31:33.763Z,100549.16
2023-01-26T14:34:14.362Z,100551.19
2023-01-26T14:36:42.191Z,100548.75
2023-01-26T14:39:26.004Z,100545.94
2023-01-26T14:42:00.814Z,100546.34
2023-01-26T14:44:31.644Z,100545.16
2023-01-26T14:47:13.066Z,100540.31
2023-01-26T14:49:47.007Z,100542.31
2023-01-26T14:52:31.693Z,100539.91
2023-01-26T14:55:13.634Z,100533.44
2023-01-26T14:57:44.407Z,100537.50
2023-01-26T15:00:27.523Z,100527.28
2023-01-26T15:03:01.275Z,100532.56
2023-01-26T15:05:42.338Z,100541.88
2023-01-26T15:08:29.590Z,100540.22
2023-01-26T15:11:18.862Z,100532.16
2023-01-26T15:13:55.473Z,100539.78
2023-01-26T15:16:25.950Z,100533.38
2023-01-26T15:19:06.210Z,100541.28
2023-01-26T15:21:44.488Z,100540.94
2023-01-26T15:24:18.172Z,100529.63
2023-01-26T15:26:46.336Z,100527.53
2023-01-26T15:29:32.675Z,100528.44
2023-01-26T15:32:01.760Z,100532.03
2023-01-26T15:35:06.057Z,100530.56
2023-01-26T15:37:41.766Z,100534.97
2023-01-26T15:40:20.320Z,100534.19
2023-01-26T15:42:52.970Z,100524.78
2023-01-26T15:45:33.842Z,100524.31
2023-01-26T15:48:07.589Z,100526.97
2023-01-26T15:50:41.872Z,100530.16
2023-01-26T15:53:20.239Z,100526.03
2023-01-26T15:55:52.810Z,100525.31
2023-01-26T15:58:23.591Z,100531.63
2023-01-26T16:00:54.739Z,100526.03
2023-01-26T16:03:27.984Z,100531.59
2023-01-26T16:06:07.355Z,100526.84
2023-01-26T16:08:43.161Z,100529.63
2023-01-26T16:11:15.409Z,100534.63
2023-01-26T16:14:02.488Z,100530.63
2023-01-26T16:16:32.762Z,100528.28
2023-01-26T16:19:04.038Z,100540.59
2023-01-26T16:21:39.480Z,100531.00
2023-01-26T16:24:15.585Z,100536.16
2023-01-26T16:26:43.517Z,100537.56
2023-01-26T16:29:14.216Z,100546.25
2023-01-26T16:31:50.633Z,100543.28
2023-01-26T16:34:24.958Z,100544.34
2023-01-26T16:36:56.665Z,100533.44
2023-01-26T16:39:28.990Z,100539.00
2023-01-26T16:41:58.016Z,100549.22
2023-01-26T16:44:28.511Z,100538.53
2023-01-26T16:47:00.070Z,100538.97
2023-01-26T16:49:35.371Z,100536.53
2023-01-26T16:52:13.535Z,100536.22
2023-01-26T16:54:51.521Z,100542.09
2023-01-26T16:57:27.654Z,100544.00
2023-01-26T17:00:00.745Z,100549.97
2023-01-26T17:02:41.963Z,100540.53
2023-01-26T17:05:28.835Z,100550.00
2023-01-26T17:07:59.291Z,100548.19
2023-01-26T17:10:33.356Z,100549.50
2023-01-26T17:13:05.009Z,100544.69
2023-01-26T17:15:39.208Z,100551.22
2023-01-26T17:18:12.135Z,100547.59
2023-01-26T17:20:52.040Z,100543.97
2023-01-26T17:23:28.485Z,100544.78
2023-01-26T17:26:06.443Z,100549.22
2023-01-26T17:28:34.209Z,100550.44
2023-01-26T17:31:17.640Z,100556.09
2023-01-26T17:33:55.079Z,100553.22
2023-01-26T17:36:26.259Z,100556.06
2023-01-26T17:38:57.214Z,100559.69
2023-01-26T17:41:28.176Z,100559.69
2023-01-26T17:44:01.196Z,100565.72
2023-01-26T17:46:31.300Z,100570.56
2023-01-26T17:49:01.907Z,100573.78
2023-01-26T17:51:29.353Z,100579.03
2023-01-26T17:53:59.671Z,100587.06
2023-01-26T17:56:33.683Z,100576.19
2023-01-26T17:59:03.888Z,100581.81
2023-01-26T18:01:34.446Z,100588.66
2023-01-26T18:04:04.954Z,100585.03
2023-01-26T18:06:35.929Z,100591.00
2023-01-26T18:09:06.518Z,100595.03
2023-01-26T18:11:36.941Z,100597.44
2023-01-26T18:14:09.988Z,100599.44
2023-01-26T18:16:38.227Z,100598.22
2023-01-26T18:19:14.679Z,100601.03
2023-01-26T18:21:42.166Z,100599.84
2023-01-26T18:24:10.277Z,100599.81
2023-01-26T18:26:41.921Z,100604.25
2023-01-26T18:29:14.834Z,100607.06
2023-01-26T18:31:45.249Z,100607.06
2023-01-26T18:34:13.949Z,100614.31
2023-01-26T18:36:44.308Z,100611.94
2023-01-26T18:39:18.680Z,100614.31
2023-01-26T18:41:48.808Z,100610.25
2023-01-26T18:44:18.534Z,100617.94
2023-01-26T18:46:47.196Z,100620.72
2023-01-26T18:49:14.609Z,100625.59
2023-01-26T18:51:50.719Z,100615.06
2023-01-26T18:54:24.463Z,100621.53
2023-01-26T18:56:52.180Z,100620.28
2023-01-26T18:59:25.533Z,100617.47
2023-01-26T19:01:55.356Z,100616.25
2023-01-26T19:04:26.298Z,100615.00
2023-01-26T19:06:53.865Z,100619.81
2023-01-26T19:09:26.207Z,100615.81
2023-01-26T19:11:54.065Z,100619.03
2023-01-26T19:14:24.667Z,100619.03
2023-01-26T19:16:56.983Z,100612.56
2023-01-26T19:19:31.848Z,100616.19
2023-01-26T19:21:59.559Z,100617.00
2023-01-26T19:24:27.037Z,100608.53
2023-01-26T19:26:56.231Z,100614.16
2023-01-26T19:29:23.678Z,100619.03
2023-01-26T19:31:57.217Z,100618.66
2023-01-26T19:34:25.216Z,100623.03
2023-01-26T19:36:52.849Z,100614.56
2023-01-26T19:39:20.323Z,100630.69
2023-01-26T19:41:50.257Z,100619.81
2023-01-26T19:44:18.073Z,100622.63
2023-01-26T19:46:48.241Z,100622.63
2023-01-26T19:49:21.535Z,100621.78
2023-01-26T19:51:53.229Z,100622.59
2023-01-26T19:54:30.191Z,100623.81
2023-01-26T19:57:03.236Z,100622.63
2023-01-26T19:59:35.902Z,100629.50
2023-01-26T20:02:12.753Z,100630.66
2023-01-26T20:04:45.286Z,100627.81
2023-01-26T20:07:15.867Z,100626.19
2023-01-26T20:09:51.627Z,100628.59
2023-01-26T20:12:20.412Z,100635.09
2023-01-26T20:14:53.643Z,100624.56
2023-01-26T20:17:24.163Z,100628.19
2023-01-26T20:19:57.490Z,100625.38
2023-01-26T20:22:33.523Z,100630.59
2023-01-26T20:25:07.554Z,100631.00
2023-01-26T20:27:41.003Z,100620.50
2023-01-26T20:30:15.449Z,100626.56
2023-01-26T20:32:47.109Z,100621.31
2023-01-26T20:35:18.022Z,100632.19
2023-01-26T20:37:46.478Z,100628.97
2023-01-26T20:40:19.488Z,100621.31
2023-01-26T20:42:52.976Z,100630.97
2023-01-26T20:45:20.405Z,100628.16
2023-01-26T20:47:54.051Z,100632.59
2023-01-26T20:50:27.232Z,100628.16
2023-01-26T20:53:00.044Z,100634.94
2023-01-26T20:55:33.713Z,100630.88
2023-01-26T20:58:00.959Z,100635.72
2023-01-26T21:00:36.898Z,100624.41
2023-01-26T21:03:07.207Z,100626.44
2023-01-26T21:05:37.229Z,100621.59
2023-01-26T21:08:04.946Z,100626.84
2023-01-26T21:10:38.476Z,100620.78
2023-01-26T21:13:09.406Z,100620.44
2023-01-26T21:15:36.947Z,100620.81
2023-01-26T21:18:04.635Z,100622.84
2023-01-26T21:20:34.423Z,100622.81
2023-01-26T21:23:07.219Z,100621.19
2023-01-26T21:25:34.807Z,100620.78
2023-01-26T21:28:02.187Z,100618.78
2023-01-26T21:30:32.195Z,100609.09
2023-01-26T21:33:05.362Z,100612.31
2023-01-26T21:35:36.328Z,100617.16
2023-01-26T21:38:10.098Z,100614.69
2023-01-26T21:40:38.346Z,100612.69
2023-01-26T21:43:09.641Z,100608.66
2023-01-26T21:46:09.296Z,100614.69
2023-01-26T21:48:42.707Z,100613.88
2023-01-26T21:51:31.588Z,100610.66
2023-01-26T21:54:03.185Z,100611.09
2023-01-26T21:56:32.245Z,100601.00
2023-01-26T21:59:04.155Z,100605.84
2023-01-26T22:01:42.623Z,100605.44
2023-01-26T22:04:17.371Z,100614.69
2023-01-26T22:06:48.100Z,100603.34
2023-01-26T22:09:19.797Z,100611.00
2023-01-26T22:11:50.577Z,100600.13
2023-01-26T22:14:28.570Z,100603.81
2023-01-26T22:17:00.212Z,100607.44
2023-01-26T22:19:30.696Z,100610.69
2023-01-26T22:22:06.626Z,100615.06
2023-01-26T22:24:42.747Z,100609.81
2023-01-26T22:27:10.541Z,100611.84
2023-01-26T22:29:49.081Z,100605.38
2023-01-26T22:32:19.483Z,100601.75
2023-01-26T22:34:47.124Z,100606.94
2023-01-26T22:37:15.580Z,100596.47
2023-01-26T22:39:49.097Z,100591.28
2023-01-26T22:42:24.501Z,100597.72
2023-01-26T22:44:57.640Z,100596.13
2023-01-26T22:47:28.270Z,100593.69
2023-01-26T22:50:04.343Z,100583.97
2023-01-26T22:52:35.671Z,100588.78
2023-01-26T22:55:08.687Z,100576.28
2023-01-26T22:57:42.105Z,100582.69
2023-01-26T23:00:12.884Z,100575.84
2023-01-26T23:02:45.463Z,100574.66
2023-01-26T23:05:15.789Z,100562.25
2023-01-26T23:07:46.193Z,100571.25
2023-01-26T23:10:16.518Z,100566.91
2023-01-26T23:12:51.748Z,100571.78
2023-01-26T23:15:19.555Z,100570.56
2023-01-26T23:17:54.445Z,100566.59
2023-01-26T23:20:22.252Z,100563.38
2023-01-26T23:22:50.465Z,100564.25
2023-01-26T23:25:38.746Z,100565.09
2023-01-26T23:28:09.353Z,100561.13
2023-01-26T23:30:37.395Z,100566.75
2023-01-26T23:33:11.474Z,100563.97
2023-01-26T23:35:41.957Z,100555.47
2023-01-26T23:38:13.103Z,100554.25
2023-01-26T23:40:45.419Z,100555.91
2023-01-26T23:43:17.590Z,100553.16
2023-01-26T23:45:55.732Z,100545.88
2023-01-26T23:48:26.542Z,100545.09
2023-01-26T23:51:01.387Z,100547.91
2023-01-26T23:53:30.655Z,100543.88
2023-01-26T23:56:08.203Z,100538.63
2023-01-26T23:58:40.442Z,100546.72
